Time;durP1;ratioP1;P1;durP2;ratioP2;P2;SDS_P1;SDS_P2;PMS_P1;PMS_P2;Temp;Humidity;BMP_temperature;BMP_pressure;BME280_temperature;BME280_humidity;BME280_pressure;Samples;Min_cycle;Max_cycle;Signal;HPM_P1;HPM_P2
2023/04/14 00:02:19;;;;;;;5.53;3.03;;;6.50;20.70;;;;;;7372338;19;20654;-68
2023/04/14 00:04:53;;;;;;;6.13;3.28;;;6.50;21.10;;;;;;7373125;19;20018;-70
2023/04/14 00:07:23;;;;;;;7.53;3.45;;;6.50;18.80;;;;;;7371549;19;20070;-68
2023/04/14 00:09:53;;;;;;;5.68;3.20;;;6.50;18.60;;;;;;7391108;19;20499;-68
2023/04/14 00:12:25;;;;;;;8.55;3.70;;;6.40;18.80;;;;;;7372517;19;20025;-69
2023/04/14 00:14:55;;;;;;;8.02;3.17;;;6.40;19.50;;;;;;7370442;19;20017;-68
2023/04/14 00:17:25;;;;;;;6.80;3.40;;;6.40;19.70;;;;;;7370788;19;20021;-68
2023/04/14 00:19:55;;;;;;;8.35;3.10;;;6.30;20.60;;;;;;7369730;19;20111;-69
2023/04/14 00:22:25;;;;;;;10.52;3.33;;;6.20;21.60;;;;;;7371215;19;20025;-68
2023/04/14 00:24:55;;;;;;;5.03;3.30;;;6.20;22.00;;;;;;7394306;19;20014;-68
2023/04/14 00:27:28;;;;;;;5.55;2.88;;;6.20;23.20;;;;;;7372041;19;20006;-69
2023/04/14 00:29:58;;;;;;;6.70;3.15;;;6.20;20.30;;;;;;7367000;19;20074;-68
2023/04/14 00:32:28;;;;;;;5.97;3.17;;;6.20;21.70;;;;;;7371763;19;20384;-68
2023/04/14 00:34:59;;;;;;;5.63;3.38;;;6.10;23.40;;;;;;7369803;19;20032;-69
2023/04/14 00:37:28;;;;;;;6.55;3.15;;;6.10;23.80;;;;;;7371022;19;20010;-69
2023/04/14 00:39:58;;;;;;;5.32;3.67;;;6.00;24.00;;;;;;7390187;19;20355;-68
2023/04/14 00:42:31;;;;;;;6.70;3.20;;;6.00;24.60;;;;;;7371117;19;20020;-68
2023/04/14 00:45:01;;;;;;;5.47;3.50;;;6.00;24.90;;;;;;7370294;19;20018;-69
2023/04/14 00:47:31;;;;;;;9.88;3.65;;;5.90;25.50;;;;;;7370807;19;20018;-67
2023/04/14 00:50:02;;;;;;;11.90;3.85;;;5.90;26.30;;;;;;7367884;19;20018;-68
2023/04/14 00:52:33;;;;;;;9.68;4.07;;;5.90;26.50;;;;;;7372407;19;20356;-68
2023/04/14 00:55:04;;;;;;;7.15;3.53;;;5.80;27.30;;;;;;7392280;19;20014;-68
2023/04/14 00:57:37;;;;;;;9.43;3.90;;;5.80;27.90;;;;;;7371598;19;20111;-69
2023/04/14 01:00:08;;;;;;;6.60;3.65;;;5.70;28.50;;;;;;7365745;19;20006;-69
2023/04/14 01:02:38;;;;;;;9.38;4.78;;;5.70;29.10;;;;;;7370815;19;20025;-69
2023/04/14 01:05:09;;;;;;;10.55;6.35;;;5.60;30.00;;;;;;7370923;19;20017;-69
2023/04/14 01:07:39;;;;;;;11.13;6.22;;;5.60;31.30;;;;;;7370127;19;20017;-69
2023/04/14 01:10:10;;;;;;;9.38;5.78;;;5.70;32.30;;;;;;7389527;19;20035;-69
2023/04/14 01:13:07;;;;;;;10.38;6.68;;;5.70;33.20;;;;;;7371515;19;20022;-69
2023/04/14 01:15:41;;;;;;;10.40;6.20;;;5.60;33.80;;;;;;7369176;19;20026;-69
2023/04/14 01:18:18;;;;;;;10.10;7.00;;;5.50;34.10;;;;;;7370656;19;20026;-69
2023/04/14 01:20:53;;;;;;;10.23;6.30;;;5.50;35.10;;;;;;7366468;19;20101;-68
2023/04/14 01:23:27;;;;;;;10.45;6.88;;;5.40;35.50;;;;;;7369874;19;20491;-68
2023/04/14 01:26:17;;;;;;;9.40;6.43;;;5.40;35.80;;;;;;7369798;19;20021;-69
2023/04/14 01:29:26;;;;;;;11.38;5.82;;;5.40;36.60;;;;;;7367407;19;20017;-69
2023/04/14 01:32:04;;;;;;;9.98;6.55;;;5.30;36.40;;;;;;7367316;19;20457;-68
2023/04/14 01:34:39;;;;;;;9.27;6.45;;;5.30;37.10;;;;;;7369287;19;20482;-69
2023/04/14 01:37:12;;;;;;;8.55;6.40;;;5.20;37.50;;;;;;7391439;19;20007;-68
2023/04/14 01:39:46;;;;;;;9.88;6.93;;;5.20;37.60;;;;;;7367590;19;20010;-69
2023/04/14 01:42:20;;;;;;;11.25;6.68;;;5.10;38.10;;;;;;7368367;19;20025;-68
2023/04/14 01:44:53;;;;;;;9.15;6.00;;;5.20;38.20;;;;;;7368791;19;20006;-68
2023/04/14 01:47:27;;;;;;;11.38;6.38;;;5.20;38.20;;;;;;7370031;19;20015;-69
2023/04/14 01:49:58;;;;;;;10.38;6.22;;;5.20;37.70;;;;;;7366376;19;20018;-68
2023/04/14 01:52:31;;;;;;;12.27;6.55;;;5.10;37.20;;;;;;7369190;19;20473;-68
2023/04/14 01:55:08;;;;;;;9.88;7.43;;;5.10;37.30;;;;;;7390569;19;20038;-68
2023/04/14 01:57:40;;;;;;;10.00;7.30;;;5.00;36.60;;;;;;7368702;19;20014;-68
2023/04/14 02:00:12;;;;;;;9.77;6.65;;;5.00;37.20;;;;;;7365879;19;20014;-69
2023/04/14 02:02:48;;;;;;;8.63;6.10;;;5.00;37.50;;;;;;7367874;19;20531;-68
2023/04/14 02:05:20;;;;;;;11.02;6.10;;;5.00;36.60;;;;;;7368766;19;20495;-68
2023/04/14 02:07:52;;;;;;;11.02;6.25;;;4.90;35.40;;;;;;7368894;19;20014;-68
2023/04/14 02:10:25;;;;;;;12.02;6.63;;;4.90;35.60;;;;;;7365112;19;20025;-69
2023/04/14 02:12:58;;;;;;;14.65;5.75;;;4.90;35.50;;;;;;7389126;19;20021;-68
2023/04/14 02:15:28;;;;;;;12.88;5.55;;;4.90;34.90;;;;;;7367893;19;20042;-68
2023/04/14 02:18:02;;;;;;;12.38;6.65;;;4.80;33.70;;;;;;7368253;19;20447;-67
2023/04/14 02:20:32;;;;;;;13.88;6.07;;;4.90;34.00;;;;;;7364424;19;20020;-68
2023/04/14 02:23:02;;;;;;;12.68;6.80;;;4.90;33.90;;;;;;7367681;19;20018;-69
2023/04/14 02:25:35;;;;;;;10.00;6.15;;;4.90;33.80;;;;;;7366558;19;20800;-68
2023/04/14 02:28:08;;;;;;;9.55;6.13;;;4.90;33.90;;;;;;7387421;19;20018;-69
2023/04/14 02:30:40;;;;;;;11.80;5.75;;;4.90;33.80;;;;;;7366387;19;20011;-68
2023/04/14 02:33:18;;;;;;;10.00;5.72;;;4.90;33.80;;;;;;7367943;19;20019;-69
2023/04/14 02:35:50;;;;;;;14.10;5.85;;;4.90;33.20;;;;;;7366740;19;20003;-69
2023/04/14 02:38:24;;;;;;;13.30;6.07;;;4.90;33.10;;;;;;7366148;19;20355;-67
2023/04/14 02:40:54;;;;;;;14.52;5.88;;;5.00;32.40;;;;;;7364864;19;20011;-68
2023/04/14 02:43:30;;;;;;;6.97;4.53;;;5.00;30.30;;;;;;7365518;19;20020;-67
2023/04/14 02:46:03;;;;;;;12.38;4.88;;;5.00;29.70;;;;;;7390042;19;20022;-69
2023/04/14 02:48:37;;;;;;;14.55;5.18;;;5.00;29.10;;;;;;7367007;19;20388;-69
2023/04/14 02:51:08;;;;;;;13.02;4.97;;;5.10;27.40;;;;;;7364556;19;20047;-69
2023/04/14 02:53:38;;;;;;;12.45;4.70;;;5.00;25.30;;;;;;7366224;19;20021;-69
2023/04/14 02:56:09;;;;;;;8.95;4.60;;;5.00;23.90;;;;;;7368079;19;20007;-69
2023/04/14 02:58:40;;;;;;;11.38;4.93;;;5.00;23.40;;;;;;7365323;19;20018;-69
2023/04/14 03:01:11;;;;;;;13.77;4.30;;;5.10;22.70;;;;;;7387539;19;20481;-68
2023/04/14 03:03:43;;;;;;;11.02;3.90;;;5.10;20.50;;;;;;7366542;19;20914;-69
2023/04/14 03:06:15;;;;;;;8.02;4.18;;;5.10;20.40;;;;;;7367289;19;20014;-68
2023/04/14 03:08:46;;;;;;;7.60;3.50;;;5.10;19.70;;;;;;7367067;19;20010;-67
2023/04/14 03:11:17;;;;;;;10.52;3.92;;;5.00;19.20;;;;;;7365619;19;20050;-69
2023/04/14 03:13:48;;;;;;;16.73;4.25;;;5.00;19.00;;;;;;7364709;19;20014;-67
2023/04/14 03:16:22;;;;;;;11.38;3.72;;;5.00;18.50;;;;;;7367318;19;20049;-68
2023/04/14 03:18:55;;;;;;;8.80;4.00;;;5.00;17.90;;;;;;7387860;19;20021;-68
2023/04/14 03:21:27;;;;;;;13.57;3.97;;;5.10;17.90;;;;;;7364132;19;20006;-68
2023/04/14 03:23:58;;;;;;;11.65;4.40;;;5.00;17.40;;;;;;7364087;19;20045;-68
2023/04/14 03:26:30;;;;;;;9.27;4.00;;;5.10;16.20;;;;;;7365463;19;20007;-68
2023/04/14 03:29:02;;;;;;;10.05;3.72;;;5.10;15.70;;;;;;7365681;19;20729;-68
2023/04/14 03:31:35;;;;;;;10.30;3.80;;;5.10;14.70;;;;;;7365463;19;20024;-69
2023/04/14 03:34:09;;;;;;;11.13;3.73;;;5.10;14.10;;;;;;7387422;19;20011;-69
2023/04/14 03:36:41;;;;;;;11.43;3.63;;;5.10;13.90;;;;;;7366442;19;20471;-68
2023/04/14 03:39:13;;;;;;;6.57;3.10;;;5.20;14.00;;;;;;7365103;19;20092;-69
2023/04/14 03:41:47;;;;;;;13.90;4.40;;;5.20;12.70;;;;;;7371762;19;20015;-69
2023/04/14 03:44:19;;;;;;;11.48;3.25;;;5.20;12.30;;;;;;7373017;19;20014;-68
2023/04/14 03:46:49;;;;;;;8.50;3.30;;;5.20;10.60;;;;;;7371348;19;20433;-68
2023/04/14 03:49:24;;;;;;;6.72;3.05;;;5.20;8.80;;;;;;7369203;19;20018;-68
2023/04/14 03:52:00;;;;;;;10.70;3.83;;;5.20;8.30;;;;;;7394732;19;20030;-69
2023/04/14 03:54:33;;;;;;;12.80;3.67;;;5.20;8.80;;;;;;7372599;19;20074;-68
2023/04/14 03:57:06;;;;;;;9.30;3.75;;;5.10;8.30;;;;;;7371039;19;20497;-68
2023/04/14 03:59:38;;;;;;;10.98;3.35;;;5.10;8.80;;;;;;7370126;19;20014;-68
2023/04/14 04:02:09;;;;;;;9.32;3.88;;;5.10;9.00;;;;;;7371806;19;20403;-68
2023/04/14 04:04:42;;;;;;;8.27;3.63;;;5.10;9.70;;;;;;7372749;19;20002;-68
2023/04/14 04:07:14;;;;;;;12.05;3.85;;;4.90;12.30;;;;;;7382972;19;20078;-69
2023/04/14 04:09:47;;;;;;;7.28;4.07;;;4.80;14.50;;;;;;7391255;19;20021;-68
2023/04/14 04:12:21;;;;;;;15.05;4.70;;;4.70;17.00;;;;;;7370678;19;20019;-68
2023/04/14 04:14:51;;;;;;;13.88;5.20;;;4.60;19.40;;;;;;7372030;19;20007;-68
2023/04/14 04:17:25;;;;;;;11.13;4.80;;;4.50;21.10;;;;;;7370051;19;20482;-68
2023/04/14 04:20:00;;;;;;;11.07;5.30;;;4.40;22.60;;;;;;7368726;19;20011;-68
2023/04/14 04:22:32;;;;;;;11.20;4.68;;;4.40;23.40;;;;;;7371711;19;20019;-68
2023/04/14 04:25:03;;;;;;;9.25;4.57;;;4.40;24.10;;;;;;7394174;19;20474;-69
2023/04/14 04:27:33;;;;;;;9.05;4.40;;;4.40;24.00;;;;;;7370662;19;20035;-68
2023/04/14 04:30:03;;;;;;;8.82;4.07;;;4.40;23.60;;;;;;7369082;19;20372;-68
2023/04/14 04:32:33;;;;;;;12.30;4.80;;;4.40;22.10;;;;;;7370181;19;20037;-68
2023/04/14 04:35:07;;;;;;;11.80;4.50;;;4.30;21.00;;;;;;7370397;19;20486;-68
2023/04/14 04:37:39;;;;;;;12.98;4.40;;;4.30;19.40;;;;;;7370658;19;20069;-68
2023/04/14 04:40:10;;;;;;;14.93;4.80;;;4.30;18.60;;;;;;7390987;19;20025;-68
2023/04/14 04:42:43;;;;;;;11.50;4.53;;;4.30;18.60;;;;;;7371453;19;20022;-69
2023/04/14 04:45:14;;;;;;;10.25;4.38;;;4.20;17.70;;;;;;7370259;19;20003;-68
2023/04/14 04:47:44;;;;;;;13.88;4.78;;;4.10;19.10;;;;;;7370139;19;20010;-69
2023/04/14 04:50:17;;;;;;;14.60;4.72;;;4.10;20.10;;;;;;7368349;19;20006;-67
2023/04/14 04:52:47;;;;;;;11.48;5.03;;;4.10;20.70;;;;;;7369928;19;20006;-69
2023/04/14 04:55:17;;;;;;;12.38;4.57;;;4.10;21.20;;;;;;7370578;19;20014;-69
2023/04/14 04:57:47;;;;;;;10.68;5.25;;;4.10;22.00;;;;;;7392225;19;20014;-69
2023/04/14 05:00:18;;;;;;;9.90;5.18;;;4.00;22.30;;;;;;7366788;19;20429;-69
2023/04/14 05:02:48;;;;;;;8.88;5.28;;;4.00;22.40;;;;;;7369950;19;20009;-68
2023/04/14 05:05:20;;;;;;;15.30;5.63;;;4.00;23.20;;;;;;7372219;19;20023;-68
2023/04/14 05:07:50;;;;;;;14.63;6.13;;;4.10;23.70;;;;;;7369315;19;20401;-70
2023/04/14 05:10:21;;;;;;;11.57;5.60;;;4.20;23.50;;;;;;7365799;19;20074;-68
2023/04/14 05:12:51;;;;;;;14.63;6.05;;;4.20;22.60;;;;;;7391459;19;20034;-68
2023/04/14 05:15:21;;;;;;;11.48;5.03;;;4.40;21.40;;;;;;7368667;19;20014;-67
2023/04/14 05:17:51;;;;;;;11.38;5.35;;;4.80;20.10;;;;;;7367990;19;20015;-68
2023/04/14 05:20:24;;;;;;;15.13;6.05;;;5.10;18.50;;;;;;7366066;19;20027;-68
2023/04/14 05:22:54;;;;;;;11.25;5.20;;;5.70;9.70;;;;;;7369731;19;20415;-69
2023/04/14 05:25:24;;;;;;;10.77;4.93;;;6.90;2.70;;;;;;7369113;19;20353;-69
2023/04/14 05:27:54;;;;;;;11.07;4.65;;;7.60;1.00;;;;;;7391310;19;20406;-68
2023/04/14 05:30:23;;;;;;;12.10;4.30;;;8.20;1.00;;;;;;7366977;19;20010;-68
2023/04/14 05:32:53;;;;;;;12.70;4.65;;;9.00;1.00;;;;;;7368425;19;20017;-69
2023/04/14 05:35:26;;;;;;;13.35;3.92;;;9.00;1.00;;;;;;7368828;19;20086;-67
2023/04/14 05:37:56;;;;;;;9.38;3.97;;;8.40;1.00;;;;;;7368999;19;20039;-68
2023/04/14 05:40:27;;;;;;;8.68;3.83;;;6.70;1.00;;;;;;7364813;19;20014;-69
2023/04/14 05:42:57;;;;;;;9.77;3.90;;;5.90;1.00;;;;;;7392084;19;20502;-67
2023/04/14 05:45:26;;;;;;;12.05;3.30;;;5.90;1.00;;;;;;7368078;19;20011;-68
2023/04/14 05:47:57;;;;;;;7.57;2.72;;;5.90;1.00;;;;;;7368052;19;20014;-68
2023/04/14 05:50:29;;;;;;;9.93;3.50;;;5.70;1.00;;;;;;7364626;19;20035;-69
2023/04/14 05:52:59;;;;;;;10.02;3.40;;;5.70;1.00;;;;;;7368629;19;20010;-69
2023/04/14 05:55:29;;;;;;;8.27;2.75;;;5.70;1.00;;;;;;7367942;19;20011;-68
2023/04/14 05:57:59;;;;;;;10.32;2.80;;;5.90;1.00;;;;;;7389899;19;20007;-67
2023/04/14 06:00:30;;;;;;;7.25;2.58;;;5.90;1.00;;;;;;7364735;19;20375;-68
2023/04/14 06:03:00;;;;;;;12.10;2.92;;;6.00;1.00;;;;;;7367106;19;20009;-68
2023/04/14 06:05:33;;;;;;;8.88;2.80;;;5.90;1.00;;;;;;7368729;19;20002;-67
2023/04/14 06:08:03;;;;;;;8.63;3.03;;;6.20;1.00;;;;;;7368257;19;20078;-69
2023/04/14 06:10:34;;;;;;;6.55;2.90;;;6.40;1.00;;;;;;7363170;19;20531;-68
2023/04/14 06:13:04;;;;;;;9.63;2.83;;;6.30;1.00;;;;;;7389088;19;20522;-69
2023/04/14 06:15:34;;;;;;;10.27;2.90;;;6.40;1.00;;;;;;7367308;19;20094;-68
2023/04/14 06:18:04;;;;;;;5.78;2.42;;;6.60;1.00;;;;;;7366510;19;20025;-69
2023/04/14 06:20:36;;;;;;;9.07;3.30;;;6.50;1.00;;;;;;7364843;19;20010;-69
2023/04/14 06:23:07;;;;;;;6.50;3.65;;;6.60;1.00;;;;;;7367626;19;20010;-69
2023/04/14 06:25:36;;;;;;;6.40;2.78;;;6.70;1.00;;;;;;7366056;19;20081;-69
2023/04/14 06:28:06;;;;;;;7.38;2.63;;;6.90;1.00;;;;;;7389734;19;20042;-68
2023/04/14 06:30:36;;;;;;;9.38;2.60;;;6.80;1.00;;;;;;7365695;19;20017;-68
2023/04/14 06:33:06;;;;;;;8.13;2.63;;;6.90;1.00;;;;;;7366856;19;20035;-67
2023/04/14 06:35:39;;;;;;;6.53;1.83;;;7.00;1.00;;;;;;7365365;19;20026;-68
2023/04/14 06:38:09;;;;;;;5.95;2.13;;;7.20;1.00;;;;;;7367359;19;20006;-69
2023/04/14 06:40:39;;;;;;;6.43;2.20;;;7.30;1.00;;;;;;7363709;19;20702;-68
2023/04/14 06:43:11;;;;;;;5.40;2.33;;;7.50;1.00;;;;;;7390383;19;20018;-68
2023/04/14 06:45:41;;;;;;;5.97;2.33;;;7.20;1.00;;;;;;7369059;19;20402;-67
2023/04/14 06:48:12;;;;;;;7.50;2.28;;;7.30;1.00;;;;;;7364824;19;20481;-68
2023/04/14 06:50:44;;;;;;;6.70;2.55;;;7.40;1.00;;;;;;7365636;19;20098;-69
2023/04/14 06:53:14;;;;;;;11.65;2.45;;;7.50;1.00;;;;;;7366894;19;20286;-70
2023/04/14 06:55:44;;;;;;;6.43;2.10;;;7.40;1.00;;;;;;7366338;19;20063;-69
2023/04/14 06:58:14;;;;;;;6.25;2.03;;;7.40;1.00;;;;;;7366850;19;20003;-69
2023/04/14 07:00:44;;;;;;;5.00;2.40;;;7.50;1.00;;;;;;7386160;19;20486;-68
2023/04/14 07:03:14;;;;;;;6.25;2.05;;;7.60;1.00;;;;;;7366092;19;20014;-68
2023/04/14 07:05:46;;;;;;;6.15;2.15;;;7.50;1.00;;;;;;7365901;19;20089;-68
2023/04/14 07:08:16;;;;;;;7.22;2.25;;;7.80;1.00;;;;;;7365567;19;20014;-69
2023/04/14 07:10:46;;;;;;;7.65;2.50;;;7.90;1.00;;;;;;7363558;19;20078;-68
2023/04/14 07:13:19;;;;;;;7.07;2.10;;;8.00;1.00;;;;;;7364936;19;20015;-68
2023/04/14 07:15:49;;;;;;;5.47;1.73;;;8.20;1.00;;;;;;7394970;19;20014;-69
2023/04/14 07:18:19;;;;;;;7.32;2.67;;;8.30;1.00;;;;;;7372899;19;20011;-67
2023/04/14 07:20:53;;;;;;;5.78;1.33;;;8.50;1.00;;;;;;7372084;19;20443;-69
2023/04/14 07:23:22;;;;;;;10.53;1.93;;;8.30;1.00;;;;;;7370210;19;20009;-68
2023/04/14 07:25:53;;;;;;;4.88;1.90;;;8.40;1.00;;;;;;7373298;19;20207;-68
2023/04/14 07:28:23;;;;;;;5.10;2.45;;;8.60;1.00;;;;;;7372175;19;20018;-68
2023/04/14 07:30:54;;;;;;;7.97;2.00;;;8.30;1.00;;;;;;7391852;19;20299;-69
2023/04/14 07:33:25;;;;;;;3.97;1.42;;;8.30;1.00;;;;;;7371640;19;20042;-68
2023/04/14 07:35:59;;;;;;;5.93;1.63;;;8.60;1.00;;;;;;7372485;19;20014;-68
2023/04/14 07:38:32;;;;;;;8.80;2.05;;;9.00;1.00;;;;;;7370980;19;20485;-68
2023/04/14 07:41:05;;;;;;;6.90;1.73;;;8.80;1.00;;;;;;7370423;19;20014;-69
2023/04/14 07:43:37;;;;;;;4.75;1.73;;;8.80;1.00;;;;;;7372282;19;20019;-68
2023/04/14 07:46:09;;;;;;;5.53;1.80;;;9.00;1.00;;;;;;7394879;19;20617;-68
2023/04/14 07:48:40;;;;;;;9.43;2.50;;;8.90;1.00;;;;;;7372097;19;20015;-69
2023/04/14 07:51:13;;;;;;;9.88;1.95;;;9.20;1.00;;;;;;7371255;19;20017;-68
2023/04/14 07:53:44;;;;;;;10.43;1.90;;;9.40;1.00;;;;;;7369669;19;20015;-69
2023/04/14 07:56:14;;;;;;;4.03;2.03;;;9.20;1.00;;;;;;7372866;19;20010;-69
2023/04/14 07:58:44;;;;;;;7.25;1.98;;;9.10;1.00;;;;;;7370452;19;20007;-70
2023/04/14 08:01:14;;;;;;;5.30;1.80;;;9.00;1.00;;;;;;7370671;19;20010;-71
2023/04/14 08:03:44;;;;;;;5.00;1.40;;;9.00;1.00;;;;;;7392356;19;20021;-68
2023/04/14 08:06:17;;;;;;;3.97;1.73;;;8.90;1.00;;;;;;7373542;19;20073;-69
2023/04/14 08:08:47;;;;;;;6.13;1.90;;;9.30;1.00;;;;;;7369159;19;20014;-69
2023/04/14 08:11:17;;;;;;;9.07;2.10;;;9.50;1.00;;;;;;7370014;19;20482;-68
2023/04/14 08:13:48;;;;;;;4.53;1.75;;;9.60;1.00;;;;;;7370538;19;20010;-69
2023/04/14 08:16:18;;;;;;;6.75;1.63;;;9.70;1.00;;;;;;7372789;19;20017;-69
2023/04/14 08:18:48;;;;;;;6.80;2.45;;;9.70;1.00;;;;;;7393039;19;20011;-69
2023/04/14 08:21:21;;;;;;;8.75;2.45;;;10.00;1.00;;;;;;7371440;19;20010;-68
2023/04/14 08:23:51;;;;;;;9.57;2.33;;;10.40;1.00;;;;;;7368390;19;20066;-69
2023/04/14 08:26:21;;;;;;;9.23;2.53;;;9.70;1.00;;;;;;7368042;19;20028;-69
2023/04/14 08:28:51;;;;;;;7.32;1.92;;;10.00;1.00;;;;;;7370506;19;20098;-67
2023/04/14 08:31:23;;;;;;;10.10;2.40;;;10.00;1.00;;;;;;7370598;19;20011;-69
2023/04/14 08:33:54;;;;;;;12.43;2.35;;;9.70;1.00;;;;;;7392843;19;20047;-69
2023/04/14 08:36:26;;;;;;;8.63;2.00;;;9.90;1.00;;;;;;7371240;19;20011;-69
2023/04/14 08:38:56;;;;;;;6.65;1.77;;;10.40;1.00;;;;;;7368027;19;20011;-68
2023/04/14 08:41:28;;;;;;;12.88;2.20;;;10.40;1.00;;;;;;7370172;19;20003;-68
2023/04/14 08:43:58;;;;;;;8.45;1.90;;;10.40;1.00;;;;;;7370370;19;20529;-68
2023/04/14 08:46:29;;;;;;;10.20;2.08;;;10.10;1.00;;;;;;7369986;19;20014;-69
2023/04/14 08:49:05;;;;;;;7.72;2.20;;;10.40;1.00;;;;;;7390345;19;20078;-69
2023/04/14 08:51:44;;;;;;;8.00;1.92;;;10.60;1.00;;;;;;7370546;19;20007;-70
2023/04/14 08:54:15;;;;;;;8.85;2.25;;;10.60;1.00;;;;;;7368214;19;20105;-69
2023/04/14 08:56:45;;;;;;;8.07;1.90;;;10.50;1.00;;;;;;7370083;19;20014;-68
2023/04/14 08:59:15;;;;;;;11.30;1.83;;;10.10;1.00;;;;;;7366656;19;20013;-68
2023/04/14 09:01:45;;;;;;;4.65;1.58;;;10.50;1.00;;;;;;7369337;19;20015;-69
2023/04/14 09:04:16;;;;;;;10.93;2.08;;;10.50;1.00;;;;;;7378183;19;20479;-68
2023/04/14 09:06:49;;;;;;;4.38;1.88;;;10.60;1.00;;;;;;7391384;19;20014;-69
2023/04/14 09:09:20;;;;;;;8.02;2.03;;;10.90;1.00;;;;;;7367918;19;20014;-69
2023/04/14 09:11:51;;;;;;;3.80;1.77;;;10.70;1.00;;;;;;7369336;19;20010;-67
2023/04/14 09:14:22;;;;;;;6.20;2.35;;;11.10;1.00;;;;;;7366489;19;20446;-69
2023/04/14 09:16:53;;;;;;;8.40;2.55;;;11.20;1.00;;;;;;7368866;19;20014;-69
2023/04/14 09:19:24;;;;;;;5.75;1.83;;;11.50;1.00;;;;;;7366434;19;20011;-70
2023/04/14 09:21:57;;;;;;;11.45;2.10;;;11.20;1.00;;;;;;7391570;19;20470;-68
2023/04/14 09:24:32;;;;;;;7.80;2.67;;;11.10;1.00;;;;;;7368278;19;20014;-68
2023/04/14 09:27:05;;;;;;;10.52;2.80;;;11.10;1.00;;;;;;7368039;19;20070;-69
2023/04/14 09:29:36;;;;;;;8.90;2.45;;;11.40;1.00;;;;;;7366113;19;20010;-68
2023/04/14 09:32:06;;;;;;;4.43;2.13;;;12.00;1.00;;;;;;7370324;19;20021;-68
2023/04/14 09:34:36;;;;;;;5.03;2.10;;;11.60;1.00;;;;;;7367361;19;20102;-68
2023/04/14 09:37:11;;;;;;;5.95;1.92;;;11.10;1.00;;;;;;7389350;19;20007;-69
2023/04/14 09:39:50;;;;;;;7.65;2.33;;;11.40;1.00;;;;;;7366460;19;20018;-69
2023/04/14 09:42:20;;;;;;;5.13;1.73;;;11.90;1.00;;;;;;7369416;19;20485;-71
2023/04/14 09:44:55;;;;;;;7.82;2.20;;;11.80;1.00;;;;;;7368396;19;20015;-69
2023/04/14 09:47:25;;;;;;;;;;;11.10;1.00;;;;;;7369805;19;20048;-69
2023/04/14 09:49:58;;;;;;;6.90;1.92;;;11.80;1.00;;;;;;7364566;19;20308;-69
2023/04/14 09:52:45;;;;;;;7.30;1.88;;;11.60;1.00;;;;;;7369468;19;20029;-68
2023/04/14 09:55:17;;;;;;;5.70;1.90;;;11.50;1.00;;;;;;7372967;19;20126;-70
2023/04/14 09:57:50;;;;;;;7.10;2.13;;;11.50;1.00;;;;;;7388500;19;20010;-69
2023/04/14 10:00:23;;;;;;;8.75;2.35;;;11.70;1.00;;;;;;7364089;19;20037;-71
2023/04/14 10:02:54;;;;;;;6.88;2.10;;;11.60;1.00;;;;;;7368411;19;20010;-68
2023/04/14 10:05:28;;;;;;;5.85;1.83;;;11.60;1.00;;;;;;7367644;19;20014;-69
2023/04/14 10:08:07;;;;;;;8.20;2.42;;;11.80;1.00;;;;;;7365263;19;20432;-69
2023/04/14 10:10:37;;;;;;;4.88;1.95;;;11.90;1.00;;;;;;7366175;19;20668;-68
2023/04/14 10:13:07;;;;;;;5.40;1.77;;;12.50;1.00;;;;;;7390018;19;20018;-68
2023/04/14 10:15:37;;;;;;;4.90;2.20;;;12.10;1.00;;;;;;7365929;19;20003;-69
2023/04/14 10:18:07;;;;;;;4.35;2.05;;;12.30;1.00;;;;;;7365197;19;20023;-70
2023/04/14 10:20:38;;;;;;;7.18;2.03;;;12.40;1.00;;;;;;7366722;19;20044;-70
2023/04/14 10:23:11;;;;;;;5.50;1.73;;;11.90;1.00;;;;;;7367866;19;20011;-69
2023/04/14 10:25:41;;;;;;;4.55;1.80;;;11.60;1.00;;;;;;7365543;19;20018;-69
2023/04/14 10:28:11;;;;;;;5.78;2.35;;;12.30;1.00;;;;;;7386682;19;20021;-69
2023/04/14 10:30:42;;;;;;;7.28;2.45;;;12.10;1.00;;;;;;7366091;19;20006;-69
2023/04/14 10:33:12;;;;;;;7.72;2.25;;;12.50;1.00;;;;;;7368414;19;20032;-69
2023/04/14 10:35:46;;;;;;;8.02;2.35;;;12.80;1.00;;;;;;7365070;19;20047;-70
2023/04/14 10:38:19;;;;;;;6.15;2.10;;;12.80;1.00;;;;;;7364650;19;20443;-69
2023/04/14 10:40:49;;;;;;;9.25;1.98;;;12.40;1.00;;;;;;7364218;19;20014;-69
2023/04/14 10:43:20;;;;;;;7.80;2.13;;;12.40;1.00;;;;;;7367873;19;20010;-70
2023/04/14 10:45:56;;;;;;;4.95;1.88;;;12.00;1.00;;;;;;7389200;19;20514;-68
2023/04/14 10:48:27;;;;;;;7.60;2.20;;;11.90;1.00;;;;;;7364186;19;20030;-69
2023/04/14 10:51:00;;;;;;;6.90;2.08;;;12.30;1.00;;;;;;7369552;19;20010;-69
2023/04/14 10:53:40;;;;;;;7.05;1.80;;;12.40;1.00;;;;;;7373159;19;20014;-69
2023/04/14 10:56:10;;;;;;;9.73;2.03;;;12.60;1.00;;;;;;7374646;19;20090;-69
2023/04/14 10:58:40;;;;;;;6.40;1.92;;;12.60;1.00;;;;;;7371094;19;20011;-68
2023/04/14 11:01:27;;;;;;;8.52;2.22;;;11.90;1.00;;;;;;7393991;19;20035;-69
2023/04/14 11:03:57;;;;;;;3.72;1.67;;;12.20;1.00;;;;;;7373970;19;20477;-69
2023/04/14 11:06:57;;;;;;;6.63;1.85;;;12.20;1.00;;;;;;7373819;19;20015;-70
2023/04/14 11:09:36;;;;;;;5.07;1.77;;;12.20;1.00;;;;;;7368188;19;20011;-69
2023/04/14 11:12:20;;;;;;;9.93;1.90;;;12.60;1.00;;;;;;7375106;19;20017;-69
2023/04/14 11:14:50;;;;;;;4.15;1.77;;;12.70;1.00;;;;;;7371960;19;20478;-69
2023/04/14 11:17:22;;;;;;;7.00;1.88;;;12.80;1.00;;;;;;7371544;19;20010;-69
2023/04/14 11:19:56;;;;;;;4.78;1.63;;;13.60;1.00;;;;;;7370491;19;20018;-69
2023/04/14 11:22:42;;;;;;;4.63;1.80;;;13.80;1.00;;;;;;7373635;19;20488;-68
2023/04/14 11:25:16;;;;;;;5.95;1.73;;;13.80;1.00;;;;;;7395038;19;20034;-69
2023/04/14 11:27:47;;;;;;;7.00;1.98;;;14.20;1.00;;;;;;7371835;19;20014;-69
2023/04/14 11:30:18;;;;;;;4.90;1.83;;;13.60;1.00;;;;;;7370874;19;20127;-70
2023/04/14 11:32:50;;;;;;;6.43;1.50;;;13.60;1.00;;;;;;7373878;19;20110;-68
2023/04/14 11:35:20;;;;;;;7.57;1.65;;;13.80;1.00;;;;;;7371311;19;20096;-70
2023/04/14 11:37:54;;;;;;;7.63;1.55;;;14.50;1.00;;;;;;7371798;19;20095;-70
2023/04/14 11:40:28;;;;;;;5.25;1.63;;;13.70;1.00;;;;;;7370423;19;20521;-69
2023/04/14 11:42:59;;;;;;;7.53;1.87;;;13.60;1.00;;;;;;7394856;19;20352;-69
2023/04/14 11:45:30;;;;;;;4.85;1.33;;;13.90;1.00;;;;;;7374008;19;20358;-69
2023/04/14 11:48:02;;;;;;;5.28;1.73;;;14.20;1.00;;;;;;7371082;19;20048;-69
2023/04/14 11:50:34;;;;;;;4.68;1.20;;;14.20;1.00;;;;;;7368419;19;20471;-69
2023/04/14 11:53:09;;;;;;;3.22;1.77;;;14.40;1.00;;;;;;7373126;19;20011;-70
2023/04/14 11:55:44;;;;;;;7.45;2.00;;;14.30;1.00;;;;;;7372242;19;20015;-69
2023/04/14 11:58:14;;;;;;;7.78;2.00;;;14.00;1.00;;;;;;7391830;19;20024;-69
2023/04/14 12:00:44;;;;;;;3.95;1.35;;;13.90;1.00;;;;;;7368909;19;20427;-69
2023/04/14 12:03:14;;;;;;;3.83;1.40;;;13.80;1.00;;;;;;7372253;19;20115;-69
2023/04/14 12:05:45;;;;;;;5.90;1.50;;;13.20;1.00;;;;;;7372026;19;20015;-68
2023/04/14 12:08:15;;;;;;;5.60;1.52;;;12.90;1.00;;;;;;7371857;19;20336;-69
2023/04/14 12:10:48;;;;;;;4.45;1.55;;;12.70;1.00;;;;;;7369230;19;20017;-69
2023/04/14 12:13:17;;;;;;;9.07;1.95;;;12.50;1.00;;;;;;7372321;19;20010;-69
2023/04/14 12:15:47;;;;;;;5.43;1.45;;;12.90;1.00;;;;;;7393773;19;20360;-69
2023/04/14 12:18:18;;;;;;;6.03;1.88;;;12.70;1.00;;;;;;7369866;19;20081;-68
2023/04/14 12:21:08;;;;;;;4.20;1.60;;;12.60;1.00;;;;;;7369398;19;20018;-69
2023/04/14 12:23:41;;;;;;;5.15;1.40;;;12.60;1.00;;;;;;7371766;19;20018;-69
2023/04/14 12:26:14;;;;;;;5.18;1.38;;;12.90;1.00;;;;;;7372206;19;20011;-69
2023/04/14 12:28:44;;;;;;;5.20;1.58;;;12.80;1.00;;;;;;7369495;19;20019;-68
2023/04/14 12:31:14;;;;;;;4.38;1.48;;;12.90;1.00;;;;;;7393719;19;20011;-68
2023/04/14 12:33:46;;;;;;;4.32;1.38;;;12.90;1.00;;;;;;7371856;19;20598;-69
2023/04/14 12:36:16;;;;;;;5.55;1.70;;;12.70;1.00;;;;;;7370790;19;20011;-70
2023/04/14 12:38:49;;;;;;;5.00;1.88;;;13.00;1.00;;;;;;7369962;19;20007;-69
2023/04/14 12:41:27;;;;;;;5.53;1.47;;;12.60;1.00;;;;;;7370709;19;20018;-70
2023/04/14 12:43:57;;;;;;;4.07;1.40;;;12.60;1.00;;;;;;7370189;19;20323;-69
2023/04/14 12:46:27;;;;;;;5.18;1.40;;;13.00;1.00;;;;;;7370803;19;20019;-68
2023/04/14 12:48:58;;;;;;;4.60;1.88;;;12.90;1.00;;;;;;7390476;19;20458;-69
2023/04/14 12:51:28;;;;;;;6.65;1.77;;;12.80;1.00;;;;;;7366791;19;20006;-68
2023/04/14 12:54:08;;;;;;;4.35;1.80;;;12.90;1.00;;;;;;7365862;19;20013;-68
2023/04/14 12:56:43;;;;;;;6.75;1.40;;;13.00;1.00;;;;;;7368199;19;20010;-68
2023/04/14 12:59:14;;;;;;;4.18;1.52;;;12.60;1.00;;;;;;7364451;19;20036;-69
2023/04/14 13:01:44;;;;;;;4.28;2.05;;;12.70;1.00;;;;;;7366742;19;20461;-69
2023/04/14 13:04:14;;;;;;;5.00;2.00;;;13.20;1.00;;;;;;7390990;19;20011;-69
2023/04/14 13:06:44;;;;;;;2.97;1.40;;;13.10;1.00;;;;;;7367558;19;20483;-69
2023/04/14 13:09:13;;;;;;;4.45;1.30;;;13.10;1.00;;;;;;7364178;19;20026;-70
2023/04/14 13:11:46;;;;;;;6.00;1.63;;;12.80;1.00;;;;;;7368365;19;20356;-69
2023/04/14 13:14:16;;;;;;;3.08;1.33;;;12.90;1.00;;;;;;7365823;19;20082;-69
2023/04/14 13:16:46;;;;;;;3.10;1.30;;;12.70;1.00;;;;;;7366169;19;20021;-69
2023/04/14 13:19:16;;;;;;;6.35;1.60;;;12.70;1.00;;;;;;7376086;19;20003;-70
2023/04/14 13:21:45;;;;;;;4.75;1.50;;;12.70;1.00;;;;;;7389064;19;20580;-69
2023/04/14 13:24:15;;;;;;;5.20;1.75;;;12.80;1.00;;;;;;7368625;19;20007;-69